Cottage Lake, Washington
Current Conditions -  °F | °C
As of 4:25 AM on Thursday 29 Jan 2015 (Local Time) from KPAE Reporting Station
Haze Haze  
Wind Chill: 38°   Ceiling: 100
Heat Index: 41°   Visibility: 1mi
Dew Point: 40°   Wind: 5mph
Humidity: 96%   Direction: 10°N
Pressure: 30.35"   Gusts: NA
Location:  47.7637°N, 122.118°W
Report Text: KPAE 291225Z AUTO 01004KT 1SM R16R/2000V3500FT BR BKN001 OVC075 05/04 A3035 RMK AO2 T00500044
Loading
Personal Weather Stations






























Interactive Weather Map New forecast layout! Learn more

10-Day Weather Forecast

Advertisements
Track Severe Weather on mobile